createdAt,value
2022-08-07T00:00:03.473Z,10.68
2022-08-07T00:00:59.499Z,10.61
2022-08-07T00:02:40.797Z,10.63
2022-08-07T00:02:59.750Z,10.63
2022-08-07T00:03:58.716Z,10.61
2022-08-07T00:04:58.803Z,10.68
2022-08-07T00:05:58.716Z,10.56
2022-08-07T00:07:01.341Z,10.61
2022-08-07T00:08:02.029Z,10.49
2022-08-07T00:08:58.698Z,10.51
2022-08-07T00:10:19.140Z,10.42
2022-08-07T00:11:00.679Z,10.48
2022-08-07T00:11:59.016Z,10.44
2022-08-07T00:13:01.213Z,10.57
2022-08-07T00:13:58.644Z,10.51
2022-08-07T00:14:58.629Z,10.56
2022-08-07T00:15:58.648Z,10.46
2022-08-07T00:16:58.619Z,10.54
2022-08-07T00:17:58.645Z,10.51
2022-08-07T00:18:58.605Z,10.48
2022-08-07T00:20:01.532Z,10.69
2022-08-07T00:21:01.355Z,10.69
2022-08-07T00:22:01.976Z,10.72
2022-08-07T00:22:58.591Z,10.87
2022-08-07T00:23:58.563Z,10.94
2022-08-07T00:24:58.567Z,11.04
2022-08-07T00:26:01.820Z,11.11
2022-08-07T00:27:07.533Z,11.19
2022-08-07T00:27:59.553Z,11.14
2022-08-07T00:28:58.723Z,10.94
2022-08-07T00:29:58.534Z,11.18
2022-08-07T00:30:58.522Z,11.10
2022-08-07T00:31:58.509Z,11.17
2022-08-07T00:32:58.623Z,11.19
2022-08-07T00:33:58.521Z,11.08
2022-08-07T00:34:58.482Z,11.05
2022-08-07T00:35:58.489Z,10.97
2022-08-07T00:36:58.471Z,10.96
2022-08-07T00:37:58.480Z,10.82
2022-08-07T00:38:58.544Z,10.81
2022-08-07T00:39:58.449Z,10.74
2022-08-07T00:40:59.447Z,10.64
2022-08-07T00:42:02.369Z,10.63
2022-08-07T00:42:59.444Z,10.48
2022-08-07T00:44:00.725Z,10.46
2022-08-07T00:44:58.411Z,10.33
2022-08-07T00:45:58.409Z,10.34
2022-08-07T00:46:58.410Z,10.33
2022-08-07T00:48:09.839Z,10.33
2022-08-07T00:48:59.379Z,10.26
2022-08-07T00:50:20.774Z,10.26
2022-08-07T00:50:59.395Z,10.19
2022-08-07T00:51:58.879Z,10.19
2022-08-07T00:52:58.343Z,10.13
2022-08-07T00:53:58.341Z,10.09
2022-08-07T00:54:58.354Z,10.12
2022-08-07T00:56:02.053Z,10.12
2022-08-07T00:56:59.342Z,10.09
2022-08-07T00:57:58.331Z,10.04
2022-08-07T00:58:58.298Z,9.97
2022-08-07T00:59:58.322Z,10.01
2022-08-07T01:00:58.332Z,9.94
2022-08-07T01:01:58.330Z,9.86
2022-08-07T01:02:58.299Z,9.92
2022-08-07T01:04:00.118Z,9.89
2022-08-07T01:04:59.074Z,9.80
2022-08-07T01:05:58.243Z,9.77
2022-08-07T01:06:58.234Z,9.77
2022-08-07T01:07:58.259Z,9.83
2022-08-07T01:08:58.618Z,9.86
2022-08-07T01:10:06.226Z,9.82
2022-08-07T01:11:00.738Z,9.77
2022-08-07T01:12:23.969Z,9.82
2022-08-07T01:12:59.248Z,9.80
2022-08-07T01:13:58.197Z,9.65
2022-08-07T01:15:01.611Z,9.68
2022-08-07T01:16:00.826Z,9.66
2022-08-07T01:16:59.185Z,9.66
2022-08-07T01:17:58.177Z,9.65
2022-08-07T01:18:58.150Z,9.54
2022-08-07T01:19:58.142Z,9.50
2022-08-07T01:20:59.798Z,9.54
2022-08-07T01:21:58.115Z,9.46
2022-08-07T01:23:12.081Z,9.61
2022-08-07T01:23:59.095Z,9.55
2022-08-07T01:24:58.111Z,9.44
2022-08-07T01:25:58.105Z,9.43
2022-08-07T01:26:58.103Z,9.47
2022-08-07T01:27:58.144Z,9.34
2022-08-07T01:28:58.090Z,9.40
2022-08-07T01:29:58.057Z,9.36
2022-08-07T01:30:58.055Z,9.32
2022-08-07T01:31:59.335Z,9.36
2022-08-07T01:32:58.215Z,9.28
2022-08-07T01:33:58.095Z,9.26
2022-08-07T01:34:58.013Z,9.23
2022-08-07T01:36:06.387Z,9.23
2022-08-07T01:36:59.003Z,9.23
2022-08-07T01:37:57.992Z,9.14
2022-08-07T01:38:58.031Z,9.28
2022-08-07T01:39:58.056Z,9.22
2022-08-07T01:40:57.991Z,9.19
2022-08-07T01:42:38.777Z,9.21
2022-08-07T01:42:59.663Z,9.25
2022-08-07T01:43:57.972Z,9.16
2022-08-07T01:44:57.948Z,9.14
2022-08-07T02:02:32.866Z,9.04
2022-08-07T02:03:32.042Z,9.03
2022-08-07T02:04:32.807Z,8.99
2022-08-07T02:05:43.088Z,8.92
2022-08-07T02:06:32.710Z,8.89
2022-08-07T02:07:45.131Z,8.99
2022-08-07T02:08:32.695Z,8.94
2022-08-07T02:09:33.769Z,8.97
2022-08-07T02:10:32.659Z,8.91
2022-08-07T02:12:04.279Z,8.92
2022-08-07T02:12:32.646Z,8.91
2022-08-07T02:13:56.533Z,8.88
2022-08-07T02:14:36.217Z,8.82
2022-08-07T02:15:34.097Z,8.87
2022-08-07T02:16:33.486Z,8.87
2022-08-07T02:17:34.306Z,8.84
2022-08-07T02:18:31.621Z,8.84
2022-08-07T02:20:07.470Z,8.76
2022-08-07T02:20:32.737Z,8.84
2022-08-07T02:21:56.172Z,8.82
2022-08-07T02:23:03.509Z,8.84
2022-08-07T02:23:35.817Z,8.74
2022-08-07T02:24:31.587Z,8.78
2022-08-07T02:26:10.532Z,8.85
2022-08-07T02:26:34.399Z,8.79
2022-08-07T02:27:34.715Z,8.85
2022-08-07T02:28:31.525Z,8.87
2022-08-07T02:29:31.527Z,8.85
2022-08-07T02:30:31.530Z,8.81
2022-08-07T02:31:32.746Z,8.76
2022-08-07T02:32:31.491Z,8.82
2022-08-07T02:33:42.074Z,8.74
2022-08-07T02:34:32.491Z,8.76
2022-08-07T02:36:29.968Z,8.71
2022-08-07T02:36:33.057Z,8.70
2022-08-07T02:37:33.928Z,8.69
2022-08-07T02:38:32.082Z,8.76
2022-08-07T02:40:01.592Z,8.71
2022-08-07T02:40:35.365Z,8.71
2022-08-07T02:41:33.630Z,8.71
2022-08-07T02:42:32.393Z,8.61
2022-08-07T02:43:31.395Z,8.64
2022-08-07T02:44:34.763Z,8.63
2022-08-07T02:46:00.576Z,8.73
2022-08-07T02:46:32.367Z,8.60
2022-08-07T02:47:45.053Z,8.56
2022-08-07T02:48:32.345Z,8.63
2022-08-07T02:49:57.900Z,8.63
2022-08-07T02:50:32.353Z,8.60
2022-08-07T02:51:42.650Z,8.61
2022-08-07T02:52:32.627Z,8.56
2022-08-07T02:53:31.316Z,8.55
2022-08-07T02:54:32.319Z,8.66
2022-08-07T02:56:02.218Z,8.49
2022-08-07T02:56:32.313Z,8.51
2022-08-07T02:57:34.931Z,8.49
2022-08-07T02:58:33.368Z,8.48
2022-08-07T02:59:31.278Z,8.48
2022-08-07T03:00:32.235Z,8.51
2022-08-07T03:01:36.123Z,8.53
2022-08-07T03:02:32.233Z,8.55
2022-08-07T03:03:49.105Z,8.45
2022-08-07T03:04:32.290Z,8.53
2022-08-07T03:05:35.872Z,8.44
2022-08-07T03:06:34.572Z,8.53
2022-08-07T03:08:05.421Z,8.53
2022-08-07T03:08:32.209Z,8.48
2022-08-07T03:09:41.858Z,8.49
2022-08-07T03:10:32.204Z,8.48
2022-08-07T03:11:32.717Z,8.48
2022-08-07T03:12:31.325Z,8.38
2022-08-07T03:13:39.173Z,8.49
2022-08-07T03:14:32.160Z,8.44
2022-08-07T03:15:55.867Z,8.58
2022-08-07T03:16:32.132Z,8.45
2022-08-07T03:17:31.255Z,8.44
2022-08-07T03:18:34.753Z,8.46
2022-08-07T03:19:37.281Z,8.48
2022-08-07T03:20:32.107Z,8.41
2022-08-07T03:21:33.011Z,8.44
2022-08-07T03:22:31.115Z,8.44
2022-08-07T03:23:33.865Z,8.49
2022-08-07T03:24:32.074Z,8.33
2022-08-07T03:25:32.509Z,8.41
2022-08-07T03:26:32.057Z,8.34
2022-08-07T03:28:09.249Z,8.37
2022-08-07T03:28:38.024Z,8.38
2022-08-07T03:29:32.050Z,8.37
2022-08-07T03:30:31.684Z,8.45
2022-08-07T03:31:42.878Z,8.42
2022-08-07T03:32:32.025Z,8.41
2022-08-07T03:33:32.307Z,8.33
2022-08-07T03:34:32.003Z,8.38
2022-08-07T03:35:37.911Z,8.33
2022-08-07T03:36:31.980Z,8.36
2022-08-07T03:37:32.767Z,8.42
2022-08-07T03:38:33.328Z,8.38
2022-08-07T03:39:58.882Z,8.36
2022-08-07T03:40:36.566Z,8.44
2022-08-07T03:41:42.551Z,8.44
2022-08-07T03:42:31.934Z,8.44
2022-08-07T03:43:32.236Z,8.41
2022-08-07T03:44:34.527Z,8.44
2022-08-07T03:45:31.607Z,8.34
2022-08-07T03:46:31.945Z,8.41
2022-08-07T04:01:53.108Z,7.85
2022-08-07T04:02:56.791Z,7.88
2022-08-07T04:03:55.023Z,8.00
2022-08-07T04:04:54.125Z,8.03
2022-08-07T04:05:58.876Z,8.09
2022-08-07T04:06:55.120Z,8.16
2022-08-07T04:07:54.099Z,8.15
2022-08-07T04:08:54.095Z,8.16
2022-08-07T04:09:54.090Z,8.19
2022-08-07T04:12:20.775Z,8.18
2022-08-07T04:12:28.268Z,8.18
2022-08-07T04:12:55.066Z,8.13
2022-08-07T04:14:09.389Z,8.16
2022-08-07T04:14:55.058Z,8.23
2022-08-07T04:15:54.062Z,8.20
2022-08-07T04:16:58.390Z,8.24
2022-08-07T04:18:58.695Z,8.33
2022-08-07T04:18:59.338Z,8.38
2022-08-07T04:19:55.333Z,8.38
2022-08-07T04:20:54.623Z,8.31
2022-08-07T04:21:59.681Z,8.34
2022-08-07T04:23:01.866Z,8.44
2022-08-07T04:24:07.094Z,8.64
2022-08-07T04:24:54.987Z,8.82
2022-08-07T04:25:53.993Z,9.34
2022-08-07T04:26:53.977Z,9.69
2022-08-07T04:28:00.378Z,10.13
2022-08-07T04:28:54.931Z,10.41
2022-08-07T04:30:01.260Z,10.82
2022-08-07T04:30:57.387Z,11.15
2022-08-07T04:32:02.898Z,11.40
2022-08-07T04:32:58.288Z,11.65
2022-08-07T04:33:55.118Z,11.94
2022-08-07T04:34:53.910Z,12.29
2022-08-07T04:35:54.260Z,12.65
2022-08-07T04:36:53.914Z,12.85
2022-08-07T04:38:03.332Z,13.12
2022-08-07T04:38:54.869Z,13.19
2022-08-07T04:39:53.931Z,13.50
2022-08-07T04:40:56.697Z,13.39
2022-08-07T04:41:53.839Z,13.44
2022-08-07T04:42:53.857Z,13.60
2022-08-07T04:44:11.863Z,13.41
2022-08-07T04:45:03.013Z,13.31
2022-08-07T04:46:01.033Z,13.41
2022-08-07T04:47:03.873Z,13.65
2022-08-07T04:47:58.610Z,13.65
2022-08-07T04:48:55.432Z,13.81
2022-08-07T04:50:03.595Z,14.04
2022-08-07T04:50:54.774Z,14.25
2022-08-07T04:51:53.795Z,14.30
2022-08-07T04:52:53.742Z,14.45
2022-08-07T04:54:01.583Z,14.59
2022-08-07T04:54:54.739Z,14.78
2022-08-07T04:58:10.352Z,14.96
2022-08-07T04:58:15.219Z,15.35
2022-08-07T04:58:15.735Z,15.15
2022-08-07T04:59:17.405Z,15.03
2022-08-07T05:00:11.764Z,14.92
2022-08-07T05:00:54.804Z,15.09
2022-08-07T05:01:53.676Z,15.09
2022-08-07T05:02:53.666Z,15.28
2022-08-07T05:04:07.951Z,15.72
2022-08-07T05:04:54.655Z,15.82
2022-08-07T05:05:57.120Z,15.73
2022-08-07T05:06:54.649Z,15.94
2022-08-07T05:07:55.578Z,16.09
2022-08-07T05:09:00.862Z,16.50
2022-08-07T05:09:54.631Z,16.65
2022-08-07T05:10:58.475Z,17.09
2022-08-07T05:11:56.836Z,17.29
2022-08-07T05:12:56.188Z,17.60
2022-08-07T05:14:51.941Z,17.59
2022-08-07T05:15:04.047Z,16.71
2022-08-07T05:15:55.595Z,16.46
2022-08-07T05:16:53.565Z,16.24
2022-08-07T05:17:54.941Z,16.50
2022-08-07T05:18:53.586Z,16.84
2022-08-07T05:19:53.568Z,17.23
2022-08-07T05:20:53.679Z,17.38
2022-08-07T05:22:00.247Z,17.39
2022-08-07T05:22:54.541Z,17.31
2022-08-07T05:23:53.521Z,17.30
2022-08-07T05:24:53.540Z,17.44
2022-08-07T05:26:10.412Z,17.71
2022-08-07T05:26:54.490Z,17.95
2022-08-07T05:28:03.202Z,17.92
2022-08-07T05:28:55.614Z,17.33
2022-08-07T05:29:53.737Z,17.15
2022-08-07T05:30:53.495Z,17.08
2022-08-07T05:31:53.467Z,17.57
2022-08-07T05:32:53.445Z,18.01
2022-08-07T05:34:04.474Z,18.45
2022-08-07T05:34:54.442Z,18.68
2022-08-07T05:35:53.435Z,18.89
2022-08-07T05:36:53.454Z,19.37
2022-08-07T05:38:08.652Z,18.84
2022-08-07T05:39:00.803Z,18.55
2022-08-07T05:40:13.746Z,18.90
2022-08-07T05:40:54.431Z,18.93
2022-08-07T05:42:02.375Z,18.88
2022-08-07T05:42:55.831Z,18.89
2022-08-07T05:44:12.237Z,19.04
2022-08-07T05:45:14.062Z,18.95
2022-08-07T05:45:56.519Z,18.59
2022-08-07T05:46:53.447Z,17.95
2022-08-07T05:48:01.141Z,17.85
2022-08-07T05:48:58.363Z,17.92
2022-08-07T05:49:54.346Z,18.38
2022-08-07T05:50:53.306Z,18.99
2022-08-07T05:51:53.451Z,19.67
2022-08-07T05:52:53.294Z,19.52
2022-08-07T05:54:09.581Z,19.11
2022-08-07T05:54:55.807Z,18.23
2022-08-07T05:56:03.735Z,18.44
2022-08-07T05:56:54.709Z,18.45
2022-08-07T05:57:53.250Z,18.34
2022-08-07T05:58:53.244Z,18.92
2022-08-07T05:59:57.290Z,19.15
2022-08-07T06:00:53.224Z,19.29
2022-08-07T06:01:53.291Z,18.75
2022-08-07T06:02:53.238Z,18.56
2022-08-07T06:03:58.549Z,19.04
2022-08-07T06:04:54.214Z,19.69
2022-08-07T06:05:56.656Z,19.85
2022-08-07T06:06:56.438Z,19.89
2022-08-07T06:08:12.902Z,19.56
2022-08-07T06:08:54.176Z,20.09
2022-08-07T06:10:05.504Z,20.48
2022-08-07T06:10:54.860Z,20.04
2022-08-07T06:11:53.153Z,20.56
2022-08-07T06:12:53.176Z,20.58
2022-08-07T06:14:11.731Z,20.13
2022-08-07T06:14:54.134Z,20.41
2022-08-07T06:15:53.119Z,20.78
2022-08-07T06:16:56.252Z,20.65
2022-08-07T06:17:53.723Z,20.40
2022-08-07T06:18:55.613Z,20.95
2022-08-07T06:20:03.434Z,21.39
2022-08-07T06:22:11.654Z,20.88
2022-08-07T06:22:14.628Z,21.72
2022-08-07T06:23:02.178Z,20.50
2022-08-07T06:24:45.641Z,20.40
2022-08-07T06:24:58.480Z,20.95
2022-08-07T06:25:56.907Z,21.50
2022-08-07T06:26:53.028Z,21.80
2022-08-07T06:28:01.103Z,21.93
2022-08-07T06:28:54.025Z,21.40
2022-08-07T06:29:53.041Z,21.58
2022-08-07T06:30:53.197Z,22.32
2022-08-07T06:31:53.043Z,23.12
2022-08-07T06:32:52.987Z,23.63
2022-08-07T06:33:52.982Z,23.12
2022-08-07T06:34:52.967Z,22.45
2022-08-07T06:36:13.380Z,22.35
2022-08-07T06:36:53.971Z,21.83
2022-08-07T06:37:53.066Z,21.15
2022-08-07T06:40:12.681Z,20.95
2022-08-07T06:40:17.843Z,20.88
2022-08-07T06:40:53.978Z,21.46
2022-08-07T06:42:02.689Z,21.42
2022-08-07T06:42:53.905Z,21.43
2022-08-07T06:44:01.343Z,20.97
2022-08-07T06:44:53.890Z,20.58
2022-08-07T06:45:55.337Z,20.80
2022-08-07T06:47:10.452Z,21.35
2022-08-07T06:47:58.571Z,21.52
2022-08-07T06:48:53.891Z,20.95
2022-08-07T06:49:58.649Z,20.36
2022-08-07T06:50:54.874Z,20.51
2022-08-07T06:51:53.913Z,20.70
2022-08-07T06:52:53.845Z,20.88
2022-08-07T06:55:27.766Z,20.52
2022-08-07T06:55:31.286Z,19.69
2022-08-07T06:56:01.463Z,19.77
2022-08-07T06:56:53.796Z,20.50
2022-08-07T06:57:56.926Z,20.14
2022-08-07T07:00:12.532Z,19.99
2022-08-07T07:00:13.373Z,19.99
2022-08-07T07:00:53.772Z,19.96
2022-08-07T07:01:52.861Z,19.94
2022-08-07T07:02:57.748Z,20.16
2022-08-07T07:03:58.892Z,19.99
2022-08-07T07:04:54.996Z,20.25
2022-08-07T07:06:05.156Z,20.22
2022-08-07T07:07:00.209Z,20.13
2022-08-07T07:07:59.441Z,19.64
2022-08-07T07:08:53.736Z,19.92
2022-08-07T07:09:52.732Z,20.13
2022-08-07T07:10:54.909Z,20.66
2022-08-07T07:12:09.682Z,21.29
2022-08-07T07:12:53.816Z,21.18
2022-08-07T07:13:58.277Z,20.28
2022-08-07T07:14:53.704Z,20.26
2022-08-07T07:15:52.670Z,20.80
2022-08-07T07:16:53.350Z,21.27
2022-08-07T07:17:52.645Z,21.62
2022-08-07T07:18:52.732Z,21.76
2022-08-07T07:19:57.688Z,21.27
2022-08-07T07:20:53.675Z,20.66
2022-08-07T07:22:04.595Z,21.45
2022-08-07T07:24:07.061Z,22.32
2022-08-07T07:24:11.126Z,22.10
2022-08-07T07:24:56.666Z,22.59
2022-08-07T07:26:32.686Z,21.33
2022-08-07T07:26:54.314Z,21.12
2022-08-07T07:27:56.190Z,21.64
2022-08-07T07:29:38.931Z,21.30
2022-08-07T07:30:09.056Z,21.62
2022-08-07T07:30:53.551Z,21.93
2022-08-07T07:31:52.577Z,22.48
2022-08-07T07:32:52.537Z,22.06
2022-08-07T07:33:56.820Z,21.64
2022-08-07T07:34:53.536Z,21.00
2022-08-07T07:36:05.602Z,21.33
2022-08-07T07:36:54.206Z,21.72
2022-08-07T07:38:02.092Z,21.98
2022-08-07T07:38:54.533Z,22.18
2022-08-07T07:39:55.283Z,22.15
2022-08-07T07:40:52.487Z,21.37
2022-08-07T07:42:13.251Z,21.61
2022-08-07T07:42:54.026Z,21.70
2022-08-07T07:44:17.143Z,21.69
2022-08-07T07:44:53.467Z,21.60
2022-08-07T07:46:36.836Z,21.85
2022-08-07T07:47:00.242Z,22.54
2022-08-07T07:47:53.626Z,23.32
2022-08-07T07:49:00.287Z,23.36
2022-08-07T07:50:34.516Z,23.28
2022-08-07T07:50:53.400Z,23.28
2022-08-07T07:51:57.425Z,23.15
2022-08-07T07:52:53.403Z,23.92
2022-08-07T07:53:52.781Z,24.23
2022-08-07T07:54:53.451Z,23.91
2022-08-07T07:55:54.812Z,23.62
2022-08-07T07:56:53.380Z,22.57
2022-08-07T07:57:54.036Z,23.09
2022-08-07T07:58:53.381Z,23.34
2022-08-07T07:59:53.942Z,24.02
2022-08-07T08:00:54.122Z,23.83
2022-08-07T08:02:01.929Z,23.37
2022-08-07T08:03:04.621Z,23.62
2022-08-07T08:04:09.344Z,24.03
2022-08-07T08:04:53.395Z,24.18
2022-08-07T08:05:54.912Z,24.13
2022-08-07T08:06:53.356Z,24.03
2022-08-07T08:08:00.994Z,24.11
2022-08-07T08:08:53.292Z,24.17
2022-08-07T08:10:05.132Z,24.42
2022-08-07T08:10:53.280Z,24.70
2022-08-07T08:12:02.200Z,24.21
2022-08-07T08:12:59.637Z,23.13
2022-08-07T08:13:55.806Z,23.74
2022-08-07T08:14:52.230Z,24.20
2022-08-07T08:15:58.596Z,24.17
2022-08-07T08:16:53.252Z,23.47
2022-08-07T08:17:58.087Z,23.50
2022-08-07T08:18:53.243Z,23.43
2022-08-07T08:20:17.523Z,23.69
2022-08-07T08:20:54.040Z,24.39
2022-08-07T08:21:58.610Z,24.85
2022-08-07T08:23:24.151Z,25.04
2022-08-07T08:23:52.190Z,24.95
2022-08-07T08:25:04.438Z,24.65
2022-08-07T08:25:54.565Z,25.43
2022-08-07T08:26:52.180Z,25.47
2022-08-07T08:27:57.322Z,25.40
2022-08-07T08:28:53.144Z,25.13
2022-08-07T08:29:55.716Z,24.76
2022-08-07T08:30:55.606Z,24.98
2022-08-07T08:32:17.366Z,25.11
2022-08-07T08:32:53.926Z,25.29
2022-08-07T08:33:55.911Z,25.47
2022-08-07T08:34:53.145Z,25.36
2022-08-07T08:35:52.152Z,25.48
2022-08-07T08:36:56.221Z,25.83
2022-08-07T08:38:00.697Z,25.16
2022-08-07T08:38:53.102Z,25.60
2022-08-07T08:39:55.202Z,25.55
2022-08-07T08:40:53.114Z,25.28
2022-08-07T08:41:58.667Z,25.59
2022-08-07T08:42:53.061Z,25.41
2022-08-07T08:43:59.205Z,25.66
2022-08-07T08:44:53.174Z,26.06
2022-08-07T08:45:59.048Z,26.00
2022-08-07T08:46:53.017Z,26.55
2022-08-07T08:47:54.874Z,26.31
2022-08-07T08:48:52.785Z,26.75
2022-08-07T08:50:02.781Z,26.60
2022-08-07T08:50:54.801Z,26.13
2022-08-07T08:52:14.009Z,26.15
2022-08-07T08:52:54.270Z,26.09
2022-08-07T08:53:51.991Z,25.14
2022-08-07T08:54:51.971Z,25.41
2022-08-07T08:55:54.414Z,25.44
2022-08-07T08:56:52.966Z,25.96
2022-08-07T08:57:52.111Z,25.90
2022-08-07T08:58:54.909Z,25.78
2022-08-07T08:59:54.778Z,25.75
2022-08-07T09:00:52.606Z,24.68
2022-08-07T09:01:51.985Z,24.57
2022-08-07T09:02:54.004Z,24.51
2022-08-07T09:03:52.710Z,25.07
2022-08-07T09:04:55.004Z,26.51
2022-08-07T09:05:57.388Z,27.10
2022-08-07T09:06:53.735Z,27.15
2022-08-07T09:07:58.319Z,27.63
2022-08-07T09:08:52.881Z,27.98
2022-08-07T09:09:57.060Z,27.71
2022-08-07T09:10:52.900Z,27.51
2022-08-07T09:11:56.198Z,27.89
2022-08-07T09:12:53.185Z,26.28
2022-08-07T09:13:51.817Z,26.65
2022-08-07T09:14:58.719Z,27.52
2022-08-07T09:16:24.389Z,27.54
2022-08-07T09:16:52.790Z,27.15
2022-08-07T09:17:59.545Z,27.48
2022-08-07T09:18:58.591Z,28.41
2022-08-07T09:19:55.441Z,28.84
2022-08-07T09:20:58.312Z,28.84
2022-08-07T09:22:09.760Z,28.70
2022-08-07T09:24:35.085Z,28.29
2022-08-07T09:24:54.865Z,28.19
2022-08-07T09:25:00.450Z,29.01
2022-08-07T09:25:54.265Z,28.94
2022-08-07T09:26:51.761Z,28.14
2022-08-07T09:27:54.541Z,27.92
2022-08-07T09:30:04.150Z,26.62
2022-08-07T09:30:04.787Z,26.75
2022-08-07T09:30:54.899Z,26.37
2022-08-07T09:31:52.878Z,26.81
2022-08-07T09:32:52.316Z,27.71
2022-08-07T09:33:56.981Z,27.30
2022-08-07T09:34:54.318Z,27.48
2022-08-07T09:36:03.865Z,28.01
2022-08-07T09:36:52.649Z,28.02
2022-08-07T09:37:53.953Z,27.10
2022-08-07T09:38:53.974Z,27.17
2022-08-07T09:39:53.903Z,26.63
2022-08-07T09:40:53.133Z,26.62
2022-08-07T09:41:58.930Z,26.47
2022-08-07T09:42:52.611Z,26.48
2022-08-07T09:44:05.336Z,26.99
2022-08-07T09:47:24.545Z,27.96
2022-08-07T09:47:50.658Z,29.78
2022-08-07T09:47:51.123Z,28.88
2022-08-07T09:48:02.486Z,30.16
2022-08-07T09:50:01.739Z,29.08
2022-08-07T09:50:02.272Z,30.09
2022-08-07T09:50:52.552Z,27.48
2022-08-07T09:52:15.425Z,26.68
2022-08-07T09:52:53.913Z,26.92
2022-08-07T09:53:57.002Z,26.70
2022-08-07T09:54:53.622Z,26.66
2022-08-07T09:56:03.417Z,26.93
2022-08-07T09:56:52.519Z,27.42
2022-08-07T09:57:51.584Z,27.58
2022-08-07T09:58:51.498Z,27.68
2022-08-07T10:00:00.718Z,26.60
2022-08-07T10:00:52.559Z,26.58
2022-08-07T10:01:54.345Z,27.00
2022-08-07T10:02:55.072Z,27.29
2022-08-07T10:04:05.008Z,27.26
2022-08-07T10:04:53.042Z,26.90
2022-08-07T10:05:59.278Z,26.15
2022-08-07T10:06:54.015Z,25.31
2022-08-07T10:07:53.652Z,25.68
2022-08-07T10:08:51.478Z,26.66
2022-08-07T10:10:01.131Z,27.02
2022-08-07T10:12:01.578Z,27.26
2022-08-07T10:12:52.648Z,27.49
2022-08-07T10:14:00.733Z,27.70
2022-08-07T10:14:55.191Z,27.63
2022-08-07T10:15:51.944Z,27.85
2022-08-07T10:16:51.394Z,27.83
2022-08-07T10:18:01.875Z,27.55
2022-08-07T10:18:52.366Z,27.71
2022-08-07T10:19:51.394Z,27.51
2022-08-07T10:20:51.347Z,27.63
2022-08-07T10:22:15.822Z,28.23
2022-08-07T10:22:52.378Z,28.89
2022-08-07T10:24:05.582Z,28.97
2022-08-07T10:24:52.315Z,28.19
2022-08-07T10:25:51.974Z,27.78
2022-08-07T10:26:53.044Z,27.39
2022-08-07T10:27:51.643Z,27.47
2022-08-07T10:28:51.336Z,27.58
2022-08-07T10:29:51.677Z,28.15
2022-08-07T10:30:51.285Z,28.45
2022-08-07T10:31:51.258Z,27.80
2022-08-07T10:32:53.614Z,27.49
2022-08-07T10:34:06.909Z,27.85
2022-08-07T10:34:52.229Z,27.32
2022-08-07T10:35:56.675Z,26.89
2022-08-07T10:36:52.229Z,27.42
2022-08-07T10:38:21.120Z,27.27
2022-08-07T10:38:52.581Z,27.39
2022-08-07T10:40:03.350Z,27.30
2022-08-07T10:40:52.210Z,26.65
2022-08-07T10:41:53.848Z,26.93
2022-08-07T10:42:52.343Z,27.22
2022-08-07T10:43:51.184Z,27.49
2022-08-07T10:44:52.232Z,27.85
2022-08-07T10:45:58.224Z,28.01
2022-08-07T10:46:53.162Z,28.49
2022-08-07T10:47:53.157Z,28.51
2022-08-07T10:48:51.139Z,28.07
2022-08-07T10:49:51.783Z,27.49
2022-08-07T10:50:51.867Z,27.39
2022-08-07T10:52:02.061Z,27.49
2022-08-07T10:52:52.149Z,27.48
2022-08-07T10:53:51.154Z,27.12
2022-08-07T10:54:53.371Z,26.92
2022-08-07T10:55:53.350Z,26.56
2022-08-07T10:56:51.088Z,26.53
2022-08-07T10:57:56.086Z,27.26
2022-08-07T10:58:56.718Z,27.37
2022-08-07T10:59:52.053Z,27.27
2022-08-07T11:00:55.950Z,26.77
2022-08-07T11:02:04.668Z,27.05
2022-08-07T11:02:53.883Z,27.27
2022-08-07T11:03:55.059Z,27.00
2022-08-07T11:04:52.041Z,26.92
2022-08-07T11:05:51.372Z,27.49
2022-08-07T11:06:51.041Z,27.96
2022-08-07T11:07:59.205Z,28.47
2022-08-07T11:08:52.062Z,28.96
2022-08-07T11:10:07.606Z,28.96
2022-08-07T11:10:57.893Z,28.74
2022-08-07T11:11:52.992Z,28.69
2022-08-07T11:13:01.623Z,28.11
2022-08-07T11:14:43.877Z,27.65
2022-08-07T11:15:00.421Z,27.42
2022-08-07T11:15:54.662Z,27.12
2022-08-07T11:16:54.633Z,26.60
2022-08-07T11:17:53.994Z,26.53
2022-08-07T11:18:51.737Z,26.81
2022-08-07T11:19:51.506Z,26.93
2022-08-07T11:20:50.942Z,27.47
2022-08-07T11:21:50.915Z,27.48
2022-08-07T11:22:50.929Z,26.89
2022-08-07T11:23:50.888Z,26.78
2022-08-07T11:24:51.775Z,27.15
2022-08-07T11:25:50.906Z,27.22
2022-08-07T11:26:50.889Z,27.07
2022-08-07T11:28:01.795Z,27.07
2022-08-07T11:28:55.298Z,27.05
2022-08-07T11:30:10.031Z,27.27
2022-08-07T11:30:52.857Z,27.77
2022-08-07T11:31:51.813Z,27.90
2022-08-07T11:32:53.597Z,28.04
2022-08-07T11:33:58.548Z,27.80
2022-08-07T11:34:52.353Z,27.78
2022-08-07T11:35:59.864Z,27.87
2022-08-07T11:36:51.856Z,28.17
2022-08-07T11:37:57.778Z,28.30
2022-08-07T11:38:51.777Z,28.32
2022-08-07T11:40:00.727Z,28.27
2022-08-07T11:40:51.785Z,28.42
2022-08-07T11:42:01.540Z,28.42
2022-08-07T11:42:51.752Z,28.19
2022-08-07T11:44:11.402Z,28.57
2022-08-07T11:44:57.502Z,28.74
2022-08-07T11:45:53.655Z,28.51
2022-08-07T11:46:50.753Z,28.08
2022-08-07T11:47:56.144Z,27.37
2022-08-07T11:49:27.617Z,27.15
2022-08-07T11:50:30.361Z,27.63
2022-08-07T11:50:57.899Z,27.25
2022-08-07T11:51:51.753Z,27.15
2022-08-07T11:52:51.287Z,27.35
2022-08-07T11:54:00.643Z,27.68
2022-08-07T11:54:54.949Z,27.02
2022-08-07T11:56:09.253Z,26.62
2022-08-07T11:56:52.313Z,26.93
2022-08-07T11:58:00.064Z,27.35
2022-08-07T11:58:51.651Z,27.33
2022-08-07T12:00:10.897Z,26.90
2022-08-07T12:01:02.402Z,26.28
2022-08-07T12:01:59.021Z,26.13
2022-08-07T12:02:53.539Z,25.88
2022-08-07T12:03:50.851Z,26.33
2022-08-07T12:04:50.600Z,27.00
2022-08-07T12:05:51.390Z,27.37
2022-08-07T12:07:00.335Z,27.14
2022-08-07T12:07:53.690Z,27.25
2022-08-07T12:08:52.481Z,27.42
2022-08-07T12:09:50.563Z,27.65
2022-08-07T12:11:08.196Z,27.77
2022-08-07T12:12:09.011Z,27.51
2022-08-07T12:12:51.527Z,27.11
2022-08-07T12:13:51.391Z,26.58
2022-08-07T12:14:56.153Z,26.26
2022-08-07T12:16:07.045Z,25.77
2022-08-07T12:16:51.521Z,25.50
2022-08-07T12:17:58.978Z,25.65
2022-08-07T12:18:51.520Z,25.36
2022-08-07T12:19:56.498Z,25.25
2022-08-07T12:20:52.511Z,25.29
2022-08-07T12:21:55.535Z,25.72
2022-08-07T12:22:56.537Z,25.83
2022-08-07T12:24:05.318Z,26.21
2022-08-07T12:24:52.414Z,26.65
2022-08-07T12:26:02.797Z,26.16
2022-08-07T12:26:51.500Z,25.88
2022-08-07T12:28:08.872Z,26.07
2022-08-07T12:28:53.089Z,26.09
2022-08-07T12:29:51.803Z,25.88
2022-08-07T12:30:53.359Z,26.56
2022-08-07T12:32:01.924Z,26.83
2022-08-07T12:32:51.396Z,26.89
2022-08-07T12:33:56.088Z,26.33
2022-08-07T12:34:55.719Z,26.75
2022-08-07T12:35:58.165Z,26.58
2022-08-07T12:36:51.394Z,26.51
2022-08-07T12:38:09.149Z,26.06
2022-08-07T12:38:57.113Z,25.81
2022-08-07T12:39:51.737Z,26.00
2022-08-07T12:40:50.809Z,26.07
2022-08-07T12:41:51.861Z,26.19
2022-08-07T12:42:55.099Z,26.75
2022-08-07T12:44:03.697Z,27.18
2022-08-07T12:44:51.288Z,26.99
2022-08-07T12:45:52.433Z,26.92
2022-08-07T12:46:50.974Z,27.29
2022-08-07T12:47:50.351Z,27.71
2022-08-07T12:48:53.271Z,27.75
2022-08-07T12:49:51.799Z,27.89
2022-08-07T12:50:51.067Z,27.86
2022-08-07T12:52:12.240Z,27.83
2022-08-07T12:52:52.966Z,28.14
2022-08-07T12:54:02.974Z,28.51
2022-08-07T12:54:54.369Z,28.67
2022-08-07T12:56:03.095Z,28.47
2022-08-07T12:56:55.258Z,28.67
2022-08-07T12:58:00.979Z,28.67
2022-08-07T12:58:53.187Z,28.47
2022-08-07T12:59:54.312Z,28.11
2022-08-07T13:00:50.886Z,27.82
2022-08-07T13:01:50.238Z,27.65
2022-08-07T13:02:50.172Z,26.99
2022-08-07T13:04:02.483Z,26.33
2022-08-07T13:05:01.781Z,26.63
2022-08-07T13:06:03.763Z,26.33
2022-08-07T13:06:54.302Z,26.48
2022-08-07T13:08:13.752Z,26.28
2022-08-07T13:08:51.113Z,26.59
2022-08-07T13:10:20.479Z,26.81
2022-08-07T13:10:51.871Z,27.15
2022-08-07T13:12:03.322Z,27.68
2022-08-07T13:12:51.144Z,27.71
2022-08-07T13:13:50.402Z,27.55
2022-08-07T13:14:51.445Z,27.33
2022-08-07T13:15:51.540Z,26.95
2022-08-07T13:16:50.814Z,27.35
2022-08-07T13:17:50.064Z,27.36
2022-08-07T13:18:51.056Z,27.63
2022-08-07T13:19:51.659Z,27.17
2022-08-07T13:20:51.825Z,26.95
2022-08-07T13:21:59.749Z,27.07
2022-08-07T13:22:53.325Z,27.26
2022-08-07T13:24:01.301Z,26.58
2022-08-07T13:24:52.385Z,26.68
2022-08-07T13:25:50.848Z,26.97
2022-08-07T13:26:50.985Z,27.05
2022-08-07T13:28:10.707Z,27.47
2022-08-07T13:28:53.250Z,27.80
2022-08-07T13:29:50.985Z,27.85